sensor_id;sensor_type;location;lat;lon;timestamp;pressure;altitude;pressure_sealevel;temperature;humidity
57234;BME280;43090;52.604;13.318;2023-03-23T00:00:23;100049.56;;;10.78;86.94
57234;BME280;43090;52.604;13.318;2023-03-23T00:03:17;100052.75;;;10.72;87.25
57234;BME280;43090;52.604;13.318;2023-03-23T00:05:48;100040.84;;;10.64;87.00
57234;BME280;43090;52.604;13.318;2023-03-23T00:08:36;100036.84;;;10.59;88.53
57234;BME280;43090;52.604;13.318;2023-03-23T00:17:06;100041.25;;;10.48;89.71
57234;BME280;43090;52.604;13.318;2023-03-23T00:19:32;100048.94;;;10.53;88.57
57234;BME280;43090;52.604;13.318;2023-03-23T00:21:57;100036.84;;;10.59;88.51
57234;BME280;43090;52.604;13.318;2023-03-23T00:24:25;100036.13;;;10.57;88.75
57234;BME280;43090;52.604;13.318;2023-03-23T00:26:51;100038.66;;;10.58;88.13
57234;BME280;43090;52.604;13.318;2023-03-23T00:29:21;100034.19;;;10.59;88.69
57234;BME280;43090;52.604;13.318;2023-03-23T00:31:47;100028.44;;;10.63;87.58
57234;BME280;43090;52.604;13.318;2023-03-23T00:34:22;100020.41;;;10.63;86.87
57234;BME280;43090;52.604;13.318;2023-03-23T00:36:59;100019.97;;;10.47;88.18
57234;BME280;43090;52.604;13.318;2023-03-23T00:39:25;100016.69;;;10.55;86.90
57234;BME280;43090;52.604;13.318;2023-03-23T00:41:52;100019.59;;;10.52;86.86
57234;BME280;43090;52.604;13.318;2023-03-23T00:44:18;100006.34;;;10.50;87.21
57234;BME280;43090;52.604;13.318;2023-03-23T00:46:44;100005.72;;;10.46;87.58
57234;BME280;43090;52.604;13.318;2023-03-23T00:49:10;100000.50;;;10.45;87.94
57234;BME280;43090;52.604;13.318;2023-03-23T00:51:40;99995.16;;;10.45;88.36
57234;BME280;43090;52.604;13.318;2023-03-23T00:54:13;99996.88;;;10.34;88.35
57234;BME280;43090;52.604;13.318;2023-03-23T00:57:07;99993.47;;;10.32;88.64
57234;BME280;43090;52.604;13.318;2023-03-23T00:59:37;99976.47;;;10.22;88.83
57234;BME280;43090;52.604;13.318;2023-03-23T01:02:02;99981.13;;;10.20;89.46
57234;BME280;43090;52.604;13.318;2023-03-23T01:04:27;99984.41;;;10.12;89.58
57234;BME280;43090;52.604;13.318;2023-03-23T01:06:53;99990.09;;;10.19;89.17
57234;BME280;43090;52.604;13.318;2023-03-23T01:09:19;99990.47;;;10.14;90.06
57234;BME280;43090;52.604;13.318;2023-03-23T01:11:47;99987.78;;;10.14;89.37
57234;BME280;43090;52.604;13.318;2023-03-23T01:14:31;99981.00;;;10.10;89.62
57234;BME280;43090;52.604;13.318;2023-03-23T01:17:14;99982.81;;;10.10;89.75
57234;BME280;43090;52.604;13.318;2023-03-23T01:19:43;99979.41;;;10.08;89.66
57234;BME280;43090;52.604;13.318;2023-03-23T01:22:08;99975.28;;;10.04;90.06
57234;BME280;43090;52.604;13.318;2023-03-23T01:24:33;99964.84;;;10.00;90.12
57234;BME280;43090;52.604;13.318;2023-03-23T01:26:58;99961.09;;;10.03;90.17
57234;BME280;43090;52.604;13.318;2023-03-23T01:29:31;99968.22;;;10.03;90.81
57234;BME280;43090;52.604;13.318;2023-03-23T01:31:56;99969.69;;;10.07;91.13
57234;BME280;43090;52.604;13.318;2023-03-23T01:34:22;99966.16;;;10.17;90.41
57234;BME280;43090;52.604;13.318;2023-03-23T01:36:59;99967.63;;;10.10;90.89
57234;BME280;43090;52.604;13.318;2023-03-23T01:39:25;99974.66;;;10.11;89.53
57234;BME280;43090;52.604;13.318;2023-03-23T01:41:50;99968.94;;;10.16;89.49
57234;BME280;43090;52.604;13.318;2023-03-23T01:46:41;99974.81;;;10.10;89.67
57234;BME280;43090;52.604;13.318;2023-03-23T01:51:57;99952.16;;;10.25;88.73
57234;BME280;43090;52.604;13.318;2023-03-23T01:54:21;99947.16;;;10.32;88.12
57234;BME280;43090;52.604;13.318;2023-03-23T01:57:09;99945.53;;;10.41;88.28
57234;BME280;43090;52.604;13.318;2023-03-23T01:59:53;99943.00;;;10.39;87.81
57234;BME280;43090;52.604;13.318;2023-03-23T02:02:25;99937.28;;;10.44;87.94
57234;BME280;43090;52.604;13.318;2023-03-23T02:05:22;99941.25;;;10.49;87.76
57234;BME280;43090;52.604;13.318;2023-03-23T02:07:49;99930.69;;;10.48;87.45
57234;BME280;43090;52.604;13.318;2023-03-23T02:10:15;99934.38;;;10.36;86.72
57234;BME280;43090;52.604;13.318;2023-03-23T02:12:41;99943.53;;;10.54;86.16
57234;BME280;43090;52.604;13.318;2023-03-23T02:15:06;99937.94;;;10.57;85.71
57234;BME280;43090;52.604;13.318;2023-03-23T02:17:45;99935.97;;;10.59;85.68
57234;BME280;43090;52.604;13.318;2023-03-23T02:20:29;99931.09;;;10.64;85.74
57234;BME280;43090;52.604;13.318;2023-03-23T02:23:02;99927.31;;;10.67;84.36
57234;BME280;43090;52.604;13.318;2023-03-23T02:25:35;99943.09;;;10.70;84.63
57234;BME280;43090;52.604;13.318;2023-03-23T02:30:37;99906.34;;;10.72;85.57
57234;BME280;43090;52.604;13.318;2023-03-23T02:33:22;99921.75;;;10.80;84.91
57234;BME280;43090;52.604;13.318;2023-03-23T02:41:06;99930.81;;;10.89;83.68
57234;BME280;43090;52.604;13.318;2023-03-23T02:43:33;99926.38;;;10.78;82.80
57234;BME280;43090;52.604;13.318;2023-03-23T02:46:00;99936.44;;;10.86;82.95
57234;BME280;43090;52.604;13.318;2023-03-23T02:48:28;99930.97;;;10.87;82.72
57234;BME280;43090;52.604;13.318;2023-03-23T02:51:03;99927.75;;;10.93;83.86
57234;BME280;43090;52.604;13.318;2023-03-23T02:53:36;99924.94;;;10.95;84.75
57234;BME280;43090;52.604;13.318;2023-03-23T02:56:02;99911.75;;;10.82;88.02
57234;BME280;43090;52.604;13.318;2023-03-23T02:58:30;99914.69;;;10.79;88.72
57234;BME280;43090;52.604;13.318;2023-03-23T03:00:56;99922.75;;;10.79;90.42
57234;BME280;43090;52.604;13.318;2023-03-23T03:03:26;99905.09;;;10.76;88.63
57234;BME280;43090;52.604;13.318;2023-03-23T03:08:26;99912.94;;;10.89;90.23
57234;BME280;43090;52.604;13.318;2023-03-23T03:13:30;99918.75;;;10.94;88.81
57234;BME280;43090;52.604;13.318;2023-03-23T03:15:59;99909.34;;;10.79;89.83
57234;BME280;43090;52.604;13.318;2023-03-23T03:18:29;99912.81;;;10.91;90.71
57234;BME280;43090;52.604;13.318;2023-03-23T03:20:56;99913.78;;;10.69;89.73
57234;BME280;43090;52.604;13.318;2023-03-23T03:23:24;99920.06;;;10.79;89.64
57234;BME280;43090;52.604;13.318;2023-03-23T03:25:51;99921.34;;;10.84;90.07
57234;BME280;43090;52.604;13.318;2023-03-23T03:28:18;99919.88;;;10.92;89.99
57234;BME280;43090;52.604;13.318;2023-03-23T03:30:51;99924.94;;;10.95;89.19
57234;BME280;43090;52.604;13.318;2023-03-23T03:33:25;99924.34;;;10.91;89.09
57234;BME280;43090;52.604;13.318;2023-03-23T03:35:51;99914.66;;;10.90;90.35
57234;BME280;43090;52.604;13.318;2023-03-23T03:38:17;99921.22;;;10.86;91.37
57234;BME280;43090;52.604;13.318;2023-03-23T03:40:42;99917.84;;;10.84;92.29
57234;BME280;43090;52.604;13.318;2023-03-23T03:43:07;99923.91;;;10.86;93.21
57234;BME280;43090;52.604;13.318;2023-03-23T03:45:33;99920.38;;;10.86;93.99
57234;BME280;43090;52.604;13.318;2023-03-23T03:48:11;99920.06;;;10.79;95.71
57234;BME280;43090;52.604;13.318;2023-03-23T03:50:39;99918.94;;;10.60;97.56
57234;BME280;43090;52.604;13.318;2023-03-23T03:53:05;99915.16;;;10.63;98.02
57234;BME280;43090;52.604;13.318;2023-03-23T03:55:31;99910.13;;;10.70;97.82
57234;BME280;43090;52.604;13.318;2023-03-23T03:58:00;99914.97;;;10.76;97.63
57234;BME280;43090;52.604;13.318;2023-03-23T04:00:25;99909.50;;;10.77;97.16
57234;BME280;43090;52.604;13.318;2023-03-23T04:02:51;99911.56;;;10.74;97.48
57234;BME280;43090;52.604;13.318;2023-03-23T04:05:20;99914.44;;;10.82;97.24
57234;BME280;43090;52.604;13.318;2023-03-23T04:07:48;99900.41;;;10.69;97.56
57234;BME280;43090;52.604;13.318;2023-03-23T04:10:30;99900.84;;;10.74;98.10
57234;BME280;43090;52.604;13.318;2023-03-23T04:12:55;99885.75;;;10.73;98.38
57234;BME280;43090;52.604;13.318;2023-03-23T04:15:21;99892.50;;;10.67;99.33
57234;BME280;43090;52.604;13.318;2023-03-23T04:17:47;99908.56;;;10.67;99.22
57234;BME280;43090;52.604;13.318;2023-03-23T04:20:12;99908.97;;;10.62;100.00
57234;BME280;43090;52.604;13.318;2023-03-23T04:22:42;99920.38;;;10.64;100.00
57234;BME280;43090;52.604;13.318;2023-03-23T04:25:12;99910.78;;;10.62;100.00
57234;BME280;43090;52.604;13.318;2023-03-23T04:27:40;99892.13;;;10.50;100.00
57234;BME280;43090;52.604;13.318;2023-03-23T04:30:08;99886.81;;;10.39;100.00
57234;BME280;43090;52.604;13.318;2023-03-23T04:32:34;99911.56;;;10.53;100.00
57234;BME280;43090;52.604;13.318;2023-03-23T04:35:01;99901.25;;;10.48;100.00
57234;BME280;43090;52.604;13.318;2023-03-23T04:37:27;99902.94;;;10.49;100.00
57234;BME280;43090;52.604;13.318;2023-03-23T04:39:54;99900.00;;;10.52;100.00
57234;BME280;43090;52.604;13.318;2023-03-23T04:42:28;99908.03;;;10.52;100.00
57234;BME280;43090;52.604;13.318;2023-03-23T04:51:43;99931.19;;;10.42;100.00
57234;BME280;43090;52.604;13.318;2023-03-23T04:54:09;99935.31;;;10.46;100.00
57234;BME280;43090;52.604;13.318;2023-03-23T04:56:34;99925.81;;;10.53;100.00
57234;BME280;43090;52.604;13.318;2023-03-23T04:59:01;99927.38;;;10.56;100.00
57234;BME280;43090;52.604;13.318;2023-03-23T05:01:27;99938.78;;;10.58;100.00
57234;BME280;43090;52.604;13.318;2023-03-23T05:03:55;99938.53;;;10.61;100.00
57234;BME280;43090;52.604;13.318;2023-03-23T05:06:25;99934.53;;;10.55;100.00
57234;BME280;43090;52.604;13.318;2023-03-23T05:09:01;99937.47;;;10.52;100.00
57234;BME280;43090;52.604;13.318;2023-03-23T05:11:28;99943.69;;;10.53;100.00
57234;BME280;43090;52.604;13.318;2023-03-23T05:14:00;99941.25;;;10.49;100.00
57234;BME280;43090;52.604;13.318;2023-03-23T05:22:23;99918.91;;;10.39;100.00
57234;BME280;43090;52.604;13.318;2023-03-23T05:24:48;99919.66;;;10.41;100.00
57234;BME280;43090;52.604;13.318;2023-03-23T05:27:16;99915.28;;;10.40;100.00
57234;BME280;43090;52.604;13.318;2023-03-23T05:29:42;99908.69;;;10.33;100.00
57234;BME280;43090;52.604;13.318;2023-03-23T05:32:08;99917.22;;;10.38;100.00
57234;BME280;43090;52.604;13.318;2023-03-23T05:34:33;99915.97;;;10.42;100.00
57234;BME280;43090;52.604;13.318;2023-03-23T05:36:59;99933.75;;;10.43;100.00
57234;BME280;43090;52.604;13.318;2023-03-23T05:39:26;99936.53;;;10.42;100.00
57234;BME280;43090;52.604;13.318;2023-03-23T05:41:51;99941.78;;;10.43;100.00
57234;BME280;43090;52.604;13.318;2023-03-23T05:44:19;99935.56;;;10.43;100.00
57234;BME280;43090;52.604;13.318;2023-03-23T05:46:45;99940.41;;;10.49;100.00
57234;BME280;43090;52.604;13.318;2023-03-23T05:49:14;99942.63;;;10.44;100.00
57234;BME280;43090;52.604;13.318;2023-03-23T05:51:41;99935.91;;;10.49;100.00
57234;BME280;43090;52.604;13.318;2023-03-23T05:54:07;99932.13;;;10.52;100.00
57234;BME280;43090;52.604;13.318;2023-03-23T05:56:32;99940.78;;;10.44;100.00
57234;BME280;43090;52.604;13.318;2023-03-23T05:58:58;99932.84;;;10.54;100.00
57234;BME280;43090;52.604;13.318;2023-03-23T06:01:23;99945.19;;;10.45;100.00
57234;BME280;43090;52.604;13.318;2023-03-23T06:03:49;99946.34;;;10.53;100.00
57234;BME280;43090;52.604;13.318;2023-03-23T06:06:22;99940.47;;;10.38;100.00
57234;BME280;43090;52.604;13.318;2023-03-23T06:08:50;99942.84;;;10.52;100.00
57234;BME280;43090;52.604;13.318;2023-03-23T06:11:29;99948.81;;;10.44;100.00
57234;BME280;43090;52.604;13.318;2023-03-23T06:23:50;99954.50;;;10.51;100.00
57234;BME280;43090;52.604;13.318;2023-03-23T06:33:34;99956.50;;;10.38;100.00
57234;BME280;43090;52.604;13.318;2023-03-23T06:36:04;99953.56;;;10.41;100.00
57234;BME280;43090;52.604;13.318;2023-03-23T06:38:35;99961.50;;;10.31;100.00
57234;BME280;43090;52.604;13.318;2023-03-23T06:41:06;99949.22;;;10.28;100.00
57234;BME280;43090;52.604;13.318;2023-03-23T06:43:36;99954.84;;;10.25;100.00
57234;BME280;43090;52.604;13.318;2023-03-23T06:46:10;99957.94;;;10.30;100.00
57234;BME280;43090;52.604;13.318;2023-03-23T06:48:41;99954.56;;;10.28;100.00
57234;BME280;43090;52.604;13.318;2023-03-23T06:51:12;99955.06;;;10.22;100.00
57234;BME280;43090;52.604;13.318;2023-03-23T06:53:47;99955.56;;;10.16;100.00
57234;BME280;43090;52.604;13.318;2023-03-23T06:56:18;99958.31;;;10.37;100.00
57234;BME280;43090;52.604;13.318;2023-03-23T06:58:44;99963.56;;;10.27;100.00
57234;BME280;43090;52.604;13.318;2023-03-23T07:01:15;99963.56;;;10.39;100.00
57234;BME280;43090;52.604;13.318;2023-03-23T07:03:43;99939.97;;;10.32;100.00
57234;BME280;43090;52.604;13.318;2023-03-23T07:06:09;99950.19;;;10.39;100.00
57234;BME280;43090;52.604;13.318;2023-03-23T07:08:42;99943.47;;;10.44;100.00
57234;BME280;43090;52.604;13.318;2023-03-23T07:11:08;99917.56;;;10.45;100.00
57234;BME280;43090;52.604;13.318;2023-03-23T07:20:37;99947.38;;;10.40;100.00
57234;BME280;43090;52.604;13.318;2023-03-23T07:23:03;99949.28;;;10.49;100.00
57234;BME280;43090;52.604;13.318;2023-03-23T07:25:31;99958.44;;;10.47;100.00
57234;BME280;43090;52.604;13.318;2023-03-23T07:27:58;99957.13;;;10.41;100.00
57234;BME280;43090;52.604;13.318;2023-03-23T07:30:25;99935.59;;;10.64;100.00
57234;BME280;43090;52.604;13.318;2023-03-23T07:32:51;99933.75;;;10.64;100.00
57234;BME280;43090;52.604;13.318;2023-03-23T07:35:16;99937.75;;;10.70;100.00
57234;BME280;43090;52.604;13.318;2023-03-23T07:37:42;99940.66;;;10.46;100.00
57234;BME280;43090;52.604;13.318;2023-03-23T07:43:15;99907.50;;;10.58;100.00
57234;BME280;43090;52.604;13.318;2023-03-23T07:45:58;99891.34;;;10.81;100.00
57234;BME280;43090;52.604;13.318;2023-03-23T07:52:35;99905.88;;;10.88;100.00
57234;BME280;43090;52.604;13.318;2023-03-23T07:55:01;99913.59;;;11.03;100.00
57234;BME280;43090;52.604;13.318;2023-03-23T07:57:36;99924.22;;;11.14;100.00
57234;BME280;43090;52.604;13.318;2023-03-23T08:00:03;99933.09;;;11.14;100.00
57234;BME280;43090;52.604;13.318;2023-03-23T08:02:43;99937.56;;;11.04;100.00
57234;BME280;43090;52.604;13.318;2023-03-23T08:05:10;99940.47;;;11.22;100.00
57234;BME280;43090;52.604;13.318;2023-03-23T08:14:34;99955.13;;;11.18;100.00
57234;BME280;43090;52.604;13.318;2023-03-23T08:42:37;99960.19;;;11.42;100.00
57234;BME280;43090;52.604;13.318;2023-03-23T09:06:02;99976.31;;;11.52;100.00
57234;BME280;43090;52.604;13.318;2023-03-23T09:08:30;99988.28;;;11.48;100.00
57234;BME280;43090;52.604;13.318;2023-03-23T09:11:07;99978.97;;;11.52;100.00
57234;BME280;43090;52.604;13.318;2023-03-23T09:13:45;99985.25;;;11.62;100.00
57234;BME280;43090;52.604;13.318;2023-03-23T09:23:34;99960.59;;;11.78;100.00
57234;BME280;43090;52.604;13.318;2023-03-23T09:29:20;99956.75;;;12.02;100.00
57234;BME280;43090;52.604;13.318;2023-03-23T09:31:52;99949.44;;;12.14;100.00
57234;BME280;43090;52.604;13.318;2023-03-23T09:37:35;99967.53;;;12.31;100.00
57234;BME280;43090;52.604;13.318;2023-03-23T09:40:46;99969.94;;;12.74;100.00
57234;BME280;43090;52.604;13.318;2023-03-23T09:43:39;99972.78;;;12.62;99.03
57234;BME280;43090;52.604;13.318;2023-03-23T09:49:21;99972.34;;;12.67;99.24
57234;BME280;43090;52.604;13.318;2023-03-23T09:55:26;99975.47;;;12.92;98.14
57234;BME280;43090;52.604;13.318;2023-03-23T10:08:13;99984.47;;;13.10;94.79
57234;BME280;43090;52.604;13.318;2023-03-23T10:10:44;99987.63;;;12.96;95.48
57234;BME280;43090;52.604;13.318;2023-03-23T10:13:14;99992.59;;;12.81;94.80
57234;BME280;43090;52.604;13.318;2023-03-23T10:15:42;99980.84;;;12.62;95.52
57234;BME280;43090;52.604;13.318;2023-03-23T10:21:01;99974.75;;;12.90;93.69
57234;BME280;43090;52.604;13.318;2023-03-23T10:28:39;99962.19;;;12.90;92.25
57234;BME280;43090;52.604;13.318;2023-03-23T10:31:13;99959.13;;;13.32;93.53
57234;BME280;43090;52.604;13.318;2023-03-23T10:33:45;99955.91;;;13.19;90.10
57234;BME280;43090;52.604;13.318;2023-03-23T10:38:45;99949.81;;;13.17;90.08
57234;BME280;43090;52.604;13.318;2023-03-23T10:41:13;99962.41;;;13.16;90.60
57234;BME280;43090;52.604;13.318;2023-03-23T10:43:40;99957.16;;;13.15;90.35
57234;BME280;43090;52.604;13.318;2023-03-23T10:46:25;99954.63;;;13.23;90.28
57234;BME280;43090;52.604;13.318;2023-03-23T10:48:55;99949.19;;;13.33;90.29
57234;BME280;43090;52.604;13.318;2023-03-23T10:51:25;99955.16;;;13.37;89.40
57234;BME280;43090;52.604;13.318;2023-03-23T10:53:56;99961.91;;;13.50;88.45
57234;BME280;43090;52.604;13.318;2023-03-23T10:56:29;99956.69;;;13.29;87.43
57234;BME280;43090;52.604;13.318;2023-03-23T10:58:59;99951.91;;;13.43;87.89
57234;BME280;43090;52.604;13.318;2023-03-23T11:01:29;99970.03;;;13.21;87.76
57234;BME280;43090;52.604;13.318;2023-03-23T11:03:55;99944.28;;;13.28;87.73
57234;BME280;43090;52.604;13.318;2023-03-23T11:06:22;99957.88;;;13.17;88.21
57234;BME280;43090;52.604;13.318;2023-03-23T11:08:49;99964.97;;;13.08;87.67
57234;BME280;43090;52.604;13.318;2023-03-23T11:11:18;99961.41;;;13.17;87.95
57234;BME280;43090;52.604;13.318;2023-03-23T11:13:48;99975.81;;;13.26;86.99
57234;BME280;43090;52.604;13.318;2023-03-23T11:16:33;99977.94;;;13.32;86.41
57234;BME280;43090;52.604;13.318;2023-03-23T11:19:12;99982.91;;;13.37;85.67
57234;BME280;43090;52.604;13.318;2023-03-23T11:21:39;99973.69;;;13.30;85.47
57234;BME280;43090;52.604;13.318;2023-03-23T11:24:04;99979.38;;;13.37;85.55
57234;BME280;43090;52.604;13.318;2023-03-23T11:26:50;99982.31;;;13.43;84.84
57234;BME280;43090;52.604;13.318;2023-03-23T11:29:20;99984.47;;;13.68;83.46
57234;BME280;43090;52.604;13.318;2023-03-23T11:31:49;99987.69;;;13.33;83.57
57234;BME280;43090;52.604;13.318;2023-03-23T11:34:21;99991.66;;;13.29;84.69
57234;BME280;43090;52.604;13.318;2023-03-23T11:36:53;99990.22;;;13.45;83.93
57234;BME280;43090;52.604;13.318;2023-03-23T12:02:31;99979.50;;;13.73;80.14
57234;BME280;43090;52.604;13.318;2023-03-23T12:18:46;99987.69;;;13.81;78.30
57234;BME280;43090;52.604;13.318;2023-03-23T12:26:45;99985.69;;;13.83;77.23
57234;BME280;43090;52.604;13.318;2023-03-23T12:31:45;99976.44;;;13.95;76.92
57234;BME280;43090;52.604;13.318;2023-03-23T12:34:34;99974.53;;;13.78;77.74
57234;BME280;43090;52.604;13.318;2023-03-23T13:04:38;99958.94;;;14.99;72.96
57234;BME280;43090;52.604;13.318;2023-03-23T13:07:33;99954.56;;;15.25;71.34
57234;BME280;43090;52.604;13.318;2023-03-23T13:10:39;99957.63;;;15.04;72.24
57234;BME280;43090;52.604;13.318;2023-03-23T13:13:08;99961.50;;;15.01;73.00
57234;BME280;43090;52.604;13.318;2023-03-23T13:15:51;99969.03;;;14.97;71.47
57234;BME280;43090;52.604;13.318;2023-03-23T13:21:06;99969.91;;;14.80;71.55
57234;BME280;43090;52.604;13.318;2023-03-23T13:23:40;99952.44;;;14.84;71.03
57234;BME280;43090;52.604;13.318;2023-03-23T13:26:13;99953.19;;;14.94;70.18
57234;BME280;43090;52.604;13.318;2023-03-23T13:28:48;99943.66;;;14.82;70.55
57234;BME280;43090;52.604;13.318;2023-03-23T13:31:22;99940.72;;;15.20;69.36
57234;BME280;43090;52.604;13.318;2023-03-23T13:33:58;99932.09;;;15.16;67.57
57234;BME280;43090;52.604;13.318;2023-03-23T13:36:35;99926.00;;;15.06;67.62
57234;BME280;43090;52.604;13.318;2023-03-23T13:39:02;99913.75;;;14.93;68.47
57234;BME280;43090;52.604;13.318;2023-03-23T13:41:31;99920.25;;;14.64;69.57
57234;BME280;43090;52.604;13.318;2023-03-23T13:46:53;99903.38;;;15.33;66.92
57234;BME280;43090;52.604;13.318;2023-03-23T13:49:20;99905.38;;;14.96;67.83
57234;BME280;43090;52.604;13.318;2023-03-23T13:51:57;99906.63;;;14.84;67.37
57234;BME280;43090;52.604;13.318;2023-03-23T13:54:37;99908.50;;;15.10;66.80
57234;BME280;43090;52.604;13.318;2023-03-23T13:57:18;99908.56;;;15.26;64.37
57234;BME280;43090;52.604;13.318;2023-03-23T13:59:58;99917.97;;;14.96;64.85
57234;BME280;43090;52.604;13.318;2023-03-23T14:05:08;99918.78;;;15.14;65.04
57234;BME280;43090;52.604;13.318;2023-03-23T14:07:49;99936.53;;;15.25;64.74
57234;BME280;43090;52.604;13.318;2023-03-23T14:10:31;99940.72;;;14.93;64.91
57234;BME280;43090;52.604;13.318;2023-03-23T14:13:01;99937.59;;;14.62;65.50
57234;BME280;43090;52.604;13.318;2023-03-23T14:15:28;99928.34;;;14.82;64.21
57234;BME280;43090;52.604;13.318;2023-03-23T14:17:54;99918.72;;;14.80;63.30
57234;BME280;43090;52.604;13.318;2023-03-23T14:20:26;99930.03;;;14.83;63.07
57234;BME280;43090;52.604;13.318;2023-03-23T14:22:54;99933.88;;;14.63;63.71
57234;BME280;43090;52.604;13.318;2023-03-23T14:25:21;99926.03;;;14.70;64.03
57234;BME280;43090;52.604;13.318;2023-03-23T14:27:46;99937.88;;;14.59;64.11
57234;BME280;43090;52.604;13.318;2023-03-23T14:44:03;99933.34;;;14.59;62.78
57234;BME280;43090;52.604;13.318;2023-03-23T14:46:31;99927.06;;;14.69;62.99
57234;BME280;43090;52.604;13.318;2023-03-23T14:49:02;99923.72;;;14.57;63.06
57234;BME280;43090;52.604;13.318;2023-03-23T14:51:28;99923.09;;;14.99;64.31
57234;BME280;43090;52.604;13.318;2023-03-23T14:53:54;99917.56;;;15.35;62.16
57234;BME280;43090;52.604;13.318;2023-03-23T14:56:20;99927.78;;;14.79;64.96
57234;BME280;43090;52.604;13.318;2023-03-23T14:58:51;99937.50;;;14.90;62.86
57234;BME280;43090;52.604;13.318;2023-03-23T15:01:18;99919.22;;;15.02;62.89
57234;BME280;43090;52.604;13.318;2023-03-23T15:03:51;99925.19;;;14.51;64.86
57234;BME280;43090;52.604;13.318;2023-03-23T15:06:17;99908.56;;;14.56;64.55
57234;BME280;43090;52.604;13.318;2023-03-23T15:08:44;99916.13;;;14.70;62.87
57234;BME280;43090;52.604;13.318;2023-03-23T15:11:32;99928.50;;;14.81;63.51
57234;BME280;43090;52.604;13.318;2023-03-23T15:13:57;99925.63;;;14.82;63.75
57234;BME280;43090;52.604;13.318;2023-03-23T15:16:27;99926.88;;;15.14;62.15
57234;BME280;43090;52.604;13.318;2023-03-23T15:24:37;99914.91;;;15.17;61.01
57234;BME280;43090;52.604;13.318;2023-03-23T15:29:31;99899.66;;;14.99;61.70
57234;BME280;43090;52.604;13.318;2023-03-23T15:31:56;99909.16;;;15.12;62.07
57234;BME280;43090;52.604;13.318;2023-03-23T15:37:23;99904.94;;;15.44;60.75
57234;BME280;43090;52.604;13.318;2023-03-23T15:39:50;99912.00;;;15.37;61.00
57234;BME280;43090;52.604;13.318;2023-03-23T15:42:28;99916.66;;;15.26;60.24
57234;BME280;43090;52.604;13.318;2023-03-23T15:45:02;99933.41;;;15.12;60.94
57234;BME280;43090;52.604;13.318;2023-03-23T15:47:35;99929.19;;;14.83;61.10
57234;BME280;43090;52.604;13.318;2023-03-23T15:50:47;99933.41;;;14.49;64.13
57234;BME280;43090;52.604;13.318;2023-03-23T15:52:47;99948.69;;;14.77;62.44
57234;BME280;43090;52.604;13.318;2023-03-23T15:55:20;99941.88;;;14.55;63.07
57234;BME280;43090;52.604;13.318;2023-03-23T15:57:46;99948.72;;;14.85;62.98
57234;BME280;43090;52.604;13.318;2023-03-23T16:00:16;99957.81;;;14.84;62.14
57234;BME280;43090;52.604;13.318;2023-03-23T16:03:05;99960.06;;;14.53;63.51
57234;BME280;43090;52.604;13.318;2023-03-23T16:05:33;99957.16;;;14.64;62.89
57234;BME280;43090;52.604;13.318;2023-03-23T16:15:09;99978.97;;;14.43;62.40
57234;BME280;43090;52.604;13.318;2023-03-23T16:17:39;100009.63;;;14.14;65.49
57234;BME280;43090;52.604;13.318;2023-03-23T16:20:10;100013.75;;;14.08;66.67
57234;BME280;43090;52.604;13.318;2023-03-23T16:22:38;100040.06;;;13.87;69.07
57234;BME280;43090;52.604;13.318;2023-03-23T16:25:07;100045.69;;;13.56;72.88
57234;BME280;43090;52.604;13.318;2023-03-23T16:27:38;100035.84;;;13.74;74.14
57234;BME280;43090;52.604;13.318;2023-03-23T16:30:40;100025.63;;;13.30;75.99
57234;BME280;43090;52.604;13.318;2023-03-23T16:32:58;100006.94;;;13.39;77.24
57234;BME280;43090;52.604;13.318;2023-03-23T16:35:25;99991.47;;;13.60;76.12
57234;BME280;43090;52.604;13.318;2023-03-23T16:37:52;100014.28;;;13.27;77.52
57234;BME280;43090;52.604;13.318;2023-03-23T16:40:33;100025.50;;;13.22;78.64
57234;BME280;43090;52.604;13.318;2023-03-23T16:43:00;100036.53;;;13.19;78.69
57234;BME280;43090;52.604;13.318;2023-03-23T16:45:33;100051.38;;;13.13;79.76
57234;BME280;43090;52.604;13.318;2023-03-23T16:48:02;100066.22;;;13.27;79.19
57234;BME280;43090;52.604;13.318;2023-03-23T16:50:29;100064.41;;;13.18;80.18
57234;BME280;43090;52.604;13.318;2023-03-23T16:52:56;100073.03;;;13.12;80.72
57234;BME280;43090;52.604;13.318;2023-03-23T16:55:24;100067.94;;;12.99;82.11
57234;BME280;43090;52.604;13.318;2023-03-23T16:57:52;100068.50;;;12.73;83.41
57234;BME280;43090;52.604;13.318;2023-03-23T17:00:34;100070.03;;;12.86;83.49
57234;BME280;43090;52.604;13.318;2023-03-23T17:03:03;100073.03;;;12.92;83.11
57234;BME280;43090;52.604;13.318;2023-03-23T17:05:31;100085.03;;;12.88;83.91
57234;BME280;43090;52.604;13.318;2023-03-23T17:07:57;100081.78;;;12.65;85.36
57234;BME280;43090;52.604;13.318;2023-03-23T17:10:25;100085.28;;;12.56;85.88
57234;BME280;43090;52.604;13.318;2023-03-23T17:12:53;100083.72;;;12.53;86.36
57234;BME280;43090;52.604;13.318;2023-03-23T17:15:19;100090.56;;;12.77;85.05
57234;BME280;43090;52.604;13.318;2023-03-23T17:17:46;100080.78;;;12.86;84.23
57234;BME280;43090;52.604;13.318;2023-03-23T17:20:12;100083.78;;;12.73;85.47
57234;BME280;43090;52.604;13.318;2023-03-23T17:22:39;100087.69;;;12.69;nan
57234;BME280;43090;52.604;13.318;2023-03-23T17:25:06;100091.09;;;12.71;85.90
57234;BME280;43090;52.604;13.318;2023-03-23T17:27:34;100093.34;;;12.65;86.28
57234;BME280;43090;52.604;13.318;2023-03-23T17:30:01;100090.81;;;12.74;86.61
57234;BME280;43090;52.604;13.318;2023-03-23T17:32:27;100095.06;;;12.66;87.23
57234;BME280;43090;52.604;13.318;2023-03-23T17:34:54;100109.47;;;12.65;87.10
57234;BME280;43090;52.604;13.318;2023-03-23T17:37:20;100113.13;;;12.55;87.18